Time;durP1;ratioP1;P1;durP2;ratioP2;P2;SDS_P1;SDS_P2;PMS_P1;PMS_P2;Temp;Humidity;BMP_temperature;BMP_pressure;BME280_temperature;BME280_humidity;BME280_pressure;Samples;Min_cycle;Max_cycle;Signal;HPM_P1;HPM_P2
2023/10/09 00:01:50;;;;;;;5.13;1.57;;;;;;;13.56;100.00;102333.72;4953948;28;20449;-75
2023/10/09 00:04:16;;;;;;;4.77;1.63;;;;;;;13.52;100.00;102327.03;4953140;28;20486;-75
2023/10/09 00:06:42;;;;;;;4.53;1.70;;;;;;;12.95;100.00;102208.94;4943544;28;20450;-74
2023/10/09 00:11:56;;;;;;;5.43;1.60;;;;;;;13.10;100.00;102228.66;4955267;28;20203;-75
2023/10/09 00:14:21;;;;;;;7.30;2.27;;;;;;;13.69;100.00;102327.75;4951340;28;20852;-75
2023/10/09 00:16:48;;;;;;;5.10;1.50;;;;;;;13.50;100.00;102269.78;4951743;28;20453;-75
2023/10/09 00:19:19;;;;;;;6.30;1.80;;;;;;;13.05;100.00;102212.22;4938094;28;20187;-75
2023/10/09 00:21:48;;;;;;;4.73;1.50;;;;;;;13.50;100.00;102288.63;4950498;28;20618;-75
2023/10/09 00:24:23;;;;;;;6.33;2.17;;;;;;;13.23;100.00;102257.69;4948347;28;20827;-75
2023/10/09 00:26:49;;;;;;;5.00;1.70;;;;;;;13.33;100.00;102283.38;4953954;28;20583;-75
2023/10/09 00:29:16;;;;;;;7.00;2.20;;;;;;;13.52;100.00;102265.03;4954385;28;20442;-75
2023/10/09 00:31:49;;;;;;;5.70;1.90;;;;;;;13.57;100.00;102284.22;4937966;28;20445;-75
2023/10/09 00:34:22;;;;;;;7.60;2.23;;;;;;;12.94;100.00;102185.72;4949362;28;20521;-75
2023/10/09 00:36:51;;;;;;;4.83;1.60;;;;;;;13.54;100.00;102250.38;4954055;28;20855;-75
2023/10/09 00:39:43;;;;;;;4.43;1.97;;;;;;;13.42;100.00;102248.28;4955773;28;20503;-75
2023/10/09 00:42:12;;;;;;;4.10;1.80;;;;;;;13.49;100.00;102258.16;4953581;28;20454;-75
2023/10/09 00:44:41;;;;;;;6.37;2.20;;;;;;;13.49;100.00;102241.97;4953974;28;20466;-75
2023/10/09 00:47:33;;;;;;;5.70;2.07;;;;;;;13.11;100.00;102244.66;4941171;28;21027;-75
2023/10/09 00:50:21;;;;;;;4.90;2.00;;;;;;;12.64;100.00;102166.75;4934541;28;20445;-75
2023/10/09 00:53:04;;;;;;;3.73;1.80;;;;;;;13.18;100.00;102235.84;4935373;28;20466;-75
2023/10/09 00:55:45;;;;;;;6.80;2.00;;;;;;;13.12;100.00;102251.72;4941765;28;20439;-75
2023/10/09 00:58:23;;;;;;;5.20;2.63;;;;;;;13.38;100.00;102222.72;4954603;28;20441;-75
2023/10/09 01:00:52;;;;;;;4.00;1.60;;;;;;;12.99;100.00;102169.84;4955697;28;20441;-75
2023/10/09 01:03:22;;;;;;;4.93;2.10;;;;;;;13.04;100.00;102184.44;4954043;28;20469;-75
2023/10/09 01:11:10;;;;;;;7.20;2.60;;;;;;;13.27;100.00;102234.78;4954259;28;20500;-77
2023/10/09 01:14:25;;;;;;;4.90;2.17;;;;;;;13.37;100.00;102250.72;4953917;28;20457;-75
2023/10/09 01:16:26;;;;;;;5.90;2.30;;;;;;;12.98;100.00;102224.72;4944201;28;20450;-75
2023/10/09 01:18:58;;;;;;;5.17;2.00;;;;;;;13.21;100.00;102251.66;4956649;28;20499;-76
2023/10/09 01:21:25;;;;;;;7.57;2.50;;;;;;;12.89;100.00;102254.41;4956497;28;20338;-75
2023/10/09 01:24:08;;;;;;;5.70;2.20;;;;;;;13.20;100.00;102280.44;4952023;28;20469;-75
2023/10/09 01:26:47;;;;;;;4.07;1.73;;;;;;;12.80;100.00;102203.50;4954893;28;20605;-75
2023/10/09 01:29:16;;;;;;;6.13;2.00;;;;;;;13.16;100.00;102273.72;4957598;28;20465;-75
2023/10/09 01:31:51;;;;;;;5.07;2.40;;;;;;;12.61;100.00;102188.66;4955971;28;20522;-75
2023/10/09 01:34:24;;;;;;;5.00;1.90;;;;;;;13.26;100.00;102254.66;4957281;28;20974;-75
2023/10/09 01:36:58;;;;;;;5.90;2.60;;;;;;;12.49;100.00;102155.13;4942422;28;20446;-74
2023/10/09 01:39:26;;;;;;;6.30;2.37;;;;;;;12.70;100.00;102211.84;4951697;28;21069;-74
2023/10/09 01:42:05;;;;;;;6.00;2.60;;;;;;;13.22;100.00;102281.13;4953519;28;20531;-75
2023/10/09 01:44:34;;;;;;;5.10;2.17;;;;;;;12.31;100.00;102169.69;4943631;28;20476;-75
2023/10/09 01:47:06;;;;;;;4.23;2.10;;;;;;;12.24;100.00;102147.22;4941770;28;20435;-75
2023/10/09 01:49:37;;;;;;;6.37;2.50;;;;;;;12.28;100.00;102171.91;4939810;28;21524;-75
2023/10/09 01:52:08;;;;;;;5.17;2.33;;;;;;;12.55;100.00;102200.16;4956823;28;20465;-74
2023/10/09 01:54:38;;;;;;;6.50;2.57;;;;;;;12.20;100.00;102170.09;4956892;28;20471;-75
2023/10/09 01:57:15;;;;;;;6.13;2.67;;;;;;;12.81;100.00;102275.19;4952876;28;21009;-75
2023/10/09 01:59:43;;;;;;;4.87;2.43;;;;;;;12.53;100.00;102235.31;4947412;28;20487;-75
2023/10/09 02:05:04;;;;;;;9.77;3.40;;;;;;;12.87;100.00;102259.16;4955347;28;20470;-76
2023/10/09 02:07:40;;;;;;;6.83;2.80;;;;;;;12.37;100.00;102192.34;4957654;28;21004;-77
2023/10/09 02:10:11;;;;;;;6.53;2.80;;;;;;;12.39;100.00;102172.34;4953089;28;20950;-76
2023/10/09 02:12:37;;;;;;;9.70;3.50;;;;;;;12.43;100.00;102203.25;4956455;28;20461;-77
2023/10/09 02:15:15;;;;;;;4.67;2.40;;;;;;;12.08;100.00;102113.19;4952241;28;20437;-77
2023/10/09 02:17:51;;;;;;;8.57;3.23;;;;;;;12.72;100.00;102247.47;4955766;28;20187;-77
2023/10/09 02:20:19;;;;;;;8.53;2.93;;;;;;;12.83;100.00;102252.44;4955240;28;20955;-77
2023/10/09 02:22:44;;;;;;;7.37;3.30;;;;;;;12.60;100.00;102228.19;4944136;28;20454;-77
2023/10/09 02:25:11;;;;;;;11.33;4.60;;;;;;;12.85;100.00;102238.81;4956244;28;20524;-77
2023/10/09 02:27:40;;;;;;;8.47;3.50;;;;;;;12.66;100.00;102224.78;4953418;28;20183;-77
2023/10/09 02:30:15;;;;;;;11.00;3.40;;;;;;;12.33;100.00;102172.22;4941885;28;20819;-77
2023/10/09 02:32:42;;;;;;;6.50;3.13;;;;;;;12.51;100.00;102229.28;4945683;28;20467;-77
2023/10/09 02:35:19;;;;;;;7.70;3.73;;;;;;;12.40;100.00;102187.44;4956221;28;20444;-77
2023/10/09 02:37:46;;;;;;;8.07;4.00;;;;;;;12.61;100.00;102253.25;4952344;28;20430;-76
2023/10/09 02:40:15;;;;;;;9.90;4.67;;;;;;;12.53;100.00;102239.88;4957097;28;20881;-77
2023/10/09 02:42:43;;;;;;;11.43;5.07;;;;;;;12.66;100.00;102261.66;4942388;28;20756;-77
2023/10/09 02:45:10;;;;;;;10.67;4.77;;;;;;;12.65;100.00;102235.75;4953272;28;20481;-77
2023/10/09 02:47:39;;;;;;;10.97;4.60;;;;;;;12.86;100.00;102286.25;4954530;28;20671;-77
2023/10/09 02:50:19;;;;;;;12.53;5.80;;;;;;;12.61;100.00;102220.97;4951922;28;20789;-77
2023/10/09 02:52:47;;;;;;;11.30;5.47;;;;;;;12.84;100.00;102280.19;4956640;28;20484;-77
2023/10/09 02:55:30;;;;;;;9.73;5.30;;;;;;;12.77;100.00;102274.69;4951981;28;20434;-77
2023/10/09 02:58:04;;;;;;;16.20;5.60;;;;;;;12.50;100.00;102224.06;4939602;28;20430;-77
2023/10/09 03:00:35;;;;;;;18.77;7.00;;;;;;;12.66;100.00;102253.56;4955089;28;20488;-77
2023/10/09 03:03:06;;;;;;;17.93;8.40;;;;;;;12.61;100.00;102239.81;4954271;28;20456;-77
2023/10/09 03:05:32;;;;;;;15.03;7.90;;;;;;;13.14;100.00;102299.22;4955775;28;20429;-77
2023/10/09 03:07:57;;;;;;;16.50;9.53;;;;;;;12.68;100.00;102251.56;4949402;28;20853;-77
2023/10/09 03:10:23;;;;;;;22.17;9.90;;;;;;;12.38;100.00;102218.25;4953906;28;20206;-77
2023/10/09 03:12:53;;;;;;;18.83;9.47;;;;;;;12.48;100.00;102218.03;4955407;28;20206;-77
2023/10/09 03:15:21;;;;;;;14.50;8.43;;;;;;;13.07;100.00;102332.22;4953361;28;20212;-77
2023/10/09 03:17:48;;;;;;;17.67;9.43;;;;;;;12.85;100.00;102284.59;4952968;28;20433;-77
2023/10/09 03:20:14;;;;;;;22.17;10.47;;;;;;;12.95;100.00;102333.66;4942323;28;20447;-74
2023/10/09 03:22:40;;;;;;;20.83;10.37;;;;;;;13.04;100.00;102362.22;4952950;28;20457;-76
2023/10/09 03:25:16;;;;;;;23.43;10.50;;;;;;;13.07;100.00;102361.03;4956033;28;20469;-77
2023/10/09 03:27:44;;;;;;;25.13;12.40;;;;;;;12.53;100.00;102297.22;4953794;28;20438;-77
2023/10/09 03:30:16;;;;;;;31.10;14.40;;;;;;;12.65;100.00;102336.19;4956080;28;20436;-77
2023/10/09 03:32:43;;;;;;;29.73;13.70;;;;;;;12.85;100.00;102363.50;4951918;28;20541;-77
2023/10/09 03:35:13;;;;;;;35.90;16.33;;;;;;;12.79;100.00;102371.47;4939398;28;20429;-74
2023/10/09 03:37:39;;;;;;;29.63;16.07;;;;;;;12.89;100.00;102424.06;4954164;28;20601;-76
2023/10/09 03:40:07;;;;;;;30.30;16.40;;;;;;;13.22;100.00;102487.72;4945667;28;20796;-77
2023/10/09 03:42:36;;;;;;;30.80;14.73;;;;;;;13.48;100.00;102528.75;4951800;28;20706;-77
2023/10/09 03:45:05;;;;;;;31.37;15.00;;;;;;;13.33;100.00;102531.31;4954218;28;20565;-77
2023/10/09 03:47:31;;;;;;;33.20;16.50;;;;;;;13.21;100.00;102535.41;4951101;28;20449;-74
2023/10/09 03:50:02;;;;;;;32.03;16.87;;;;;;;13.22;100.00;102560.47;4953888;28;20434;-74
2023/10/09 03:52:28;;;;;;;30.17;16.50;;;;;;;13.18;100.00;102551.91;4954619;28;20233;-74
2023/10/09 03:54:54;;;;;;;31.83;15.83;;;;;;;13.20;100.00;102590.31;4951271;28;20589;-74
2023/10/09 03:57:20;;;;;;;26.77;14.90;;;;;;;13.07;100.00;102569.28;4955866;28;20183;-74
2023/10/09 03:59:51;;;;;;;27.73;15.50;;;;;;;13.32;100.00;102650.94;4954036;28;20870;-77
2023/10/09 04:02:17;;;;;;;29.83;15.90;;;;;;;12.95;100.00;102589.53;4954590;28;20296;-75
2023/10/09 04:04:46;;;;;;;28.50;15.50;;;;;;;13.29;100.00;102650.44;4952530;28;20577;-75
2023/10/09 04:07:14;;;;;;;29.40;16.57;;;;;;;13.28;100.00;102665.78;4936822;28;20190;-75
2023/10/09 04:09:44;;;;;;;29.57;16.13;;;;;;;13.21;100.00;102661.19;4953524;28;20439;-74
2023/10/09 04:14:36;;;;;;;30.47;14.80;;;;;;;12.91;100.00;102655.53;4951796;28;20505;-74
2023/10/09 04:17:06;;;;;;;24.53;13.30;;;;;;;12.95;100.00;102667.63;4953612;28;20214;-75
2023/10/09 04:19:38;;;;;;;27.60;15.13;;;;;;;12.92;100.00;102670.66;4957672;28;21843;-75
2023/10/09 04:22:08;;;;;;;27.87;15.90;;;;;;;13.21;100.00;102759.03;4954435;28;20503;-75
2023/10/09 04:24:44;;;;;;;26.97;16.27;;;;;;;13.19;100.00;102769.16;4955250;28;20952;-75
2023/10/09 04:27:09;;;;;;;31.03;15.63;;;;;;;13.09;100.00;102757.72;4955960;28;21744;-75
2023/10/09 04:29:38;;;;;;;25.53;15.37;;;;;;;13.08;100.00;102781.13;4954218;28;20458;-77
2023/10/09 04:32:07;;;;;;;28.77;15.20;;;;;;;13.32;100.00;102852.22;4950223;28;20389;-77
2023/10/09 04:34:38;;;;;;;27.70;14.53;;;;;;;13.36;100.00;102872.44;4947160;28;20483;-77
2023/10/09 04:39:48;;;;;;;27.20;15.37;;;;;;;12.65;100.00;102814.56;4959041;28;20487;-77
2023/10/09 04:47:49;;;;;;;28.13;15.77;;;;;;;13.44;100.00;103022.56;4956450;28;20553;-77
2023/10/09 04:50:36;;;;;;;30.10;15.27;;;;;;;13.49;100.00;103045.31;4959496;28;20521;-74
2023/10/09 04:55:53;;;;;;;26.53;15.13;;;;;;;13.64;100.00;103114.81;4955870;28;20441;-77
2023/10/09 04:58:25;;;;;;;27.13;15.23;;;;;;;13.67;100.00;103142.28;4960510;28;20430;-77
2023/10/09 05:03:42;;;;;;;26.90;16.87;;;;;;;13.15;100.00;103093.84;4952673;28;20462;-77
2023/10/09 05:06:21;;;;;;;27.70;16.97;;;;;;;13.70;100.00;103181.56;4946380;28;20547;-77
2023/10/09 05:08:54;;;;;;;29.27;17.40;;;;;;;13.89;100.00;103229.03;4958886;28;20449;-77
2023/10/09 05:11:50;;;;;;;26.43;15.97;;;;;;;13.21;100.00;103148.94;4958564;28;20441;-77
2023/10/09 05:14:27;;;;;;;32.40;17.97;;;;;;;13.76;100.00;103249.19;4955052;28;20426;-77
2023/10/09 05:16:55;;;;;;;29.77;16.17;;;;;;;13.34;100.00;103216.78;4956517;28;20970;-77
2023/10/09 05:19:42;;;;;;;29.50;15.97;;;;;;;13.93;100.00;103330.22;4956108;28;20446;-77
2023/10/09 05:22:56;;;;;;;21.33;13.20;;;;;;;13.71;100.00;103313.56;4956667;28;20543;-77
2023/10/09 05:25:00;;;;;;;25.03;16.40;;;;;;;13.91;100.00;103360.03;4951884;28;21002;-77
2023/10/09 05:30:24;;;;;;;32.50;17.40;;;;;;;14.29;100.00;103428.09;4957838;28;20497;-77
2023/10/09 05:32:49;;;;;;;27.30;16.17;;;;;;;13.88;100.00;103354.13;4957236;28;20593;-77
2023/10/09 05:35:20;;;;;;;22.77;14.40;;;;;;;14.00;100.00;103369.91;4955081;28;20441;-77
2023/10/09 05:37:45;;;;;;;23.90;15.77;;;;;;;13.83;100.00;103348.34;4956121;28;20190;-77
2023/10/09 05:42:45;;;;;;;20.57;13.03;;;;;;;14.50;100.00;103468.19;4953398;28;20223;-76
2023/10/09 05:50:37;;;;;;;22.53;14.23;;;;;;;14.47;100.00;103468.50;4908827;28;20906;-74
2023/10/09 06:03:48;;;;;;;17.33;10.50;;;;;;;14.91;100.00;103495.41;4957311;28;21029;-73
2023/10/09 06:06:33;;;;;;;16.80;9.90;;;;;;;14.93;100.00;103501.50;4953134;28;20435;-73
2023/10/09 06:11:40;;;;;;;19.93;10.83;;;;;;;14.41;100.00;103416.00;4953936;28;20465;-73
2023/10/09 06:16:41;;;;;;;19.57;11.00;;;;;;;14.89;100.00;103509.06;4955130;28;20450;-74
2023/10/09 06:24:41;;;;;;;22.37;11.50;;;;;;;14.50;100.00;103461.94;4955134;28;20835;-74
2023/10/09 06:27:14;;;;;;;15.20;10.00;;;;;;;14.24;100.00;103428.56;4954792;28;20444;-74
2023/10/09 06:35:17;;;;;;;16.50;8.93;;;;;;;14.69;100.00;103500.41;4954735;28;20664;-75
2023/10/09 06:43:53;;;;;;;15.53;9.13;;;;;;;15.11;100.00;103575.22;4956190;28;20488;-75
2023/10/09 06:45:57;;;;;;;19.70;9.70;;;;;;;15.13;100.00;103591.31;4947969;28;21319;-75
2023/10/09 06:57:12;;;;;;;16.30;9.57;;;;;;;15.16;100.00;103628.84;4953972;28;20882;-75
2023/10/09 06:59:21;;;;;;;13.07;7.07;;;;;;;15.20;100.00;103640.16;4956332;28;20628;-74
2023/10/09 07:02:25;;;;;;;14.37;7.40;;;;;;;15.18;100.00;103632.19;4954465;28;20503;-74
2023/10/09 07:07:01;;;;;;;14.10;6.50;;;;;;;14.64;100.00;103537.84;4956507;28;21041;-75
2023/10/09 07:09:42;;;;;;;16.77;7.17;;;;;;;15.21;100.00;103634.56;4944894;28;20449;-75
2023/10/09 07:12:09;;;;;;;15.50;8.00;;;;;;;15.20;100.00;103649.13;4954458;28;20462;-75
2023/10/09 07:17:26;;;;;;;13.10;7.43;;;;;;;15.00;100.00;103607.94;4955972;28;20795;-75
2023/10/09 07:27:48;;;;;;;24.47;7.43;;;;;;;14.65;100.00;103563.00;4955750;28;20433;-75
2023/10/09 07:38:14;;;;;;;13.20;6.00;;;;;;;14.80;100.00;103593.81;4953644;28;20539;-74
2023/10/09 07:40:56;;;;;;;13.90;6.60;;;;;;;15.30;100.00;103674.19;4943020;28;20813;-75
2023/10/09 07:43:35;;;;;;;15.43;6.73;;;;;;;15.23;100.00;103662.31;4951727;28;20458;-75
2023/10/09 07:48:52;;;;;;;13.93;5.80;;;;;;;14.84;100.00;103591.63;4955468;28;20500;-74
2023/10/09 07:51:23;;;;;;;10.90;5.23;;;;;;;14.79;100.00;103577.78;4950272;28;21003;-74
2023/10/09 07:54:42;;;;;;;11.57;5.63;;;;;;;14.97;100.00;103612.84;4950858;28;20465;-74
2023/10/09 07:56:45;;;;;;;12.27;5.37;;;;;;;14.73;100.00;103575.72;4947065;28;20441;-74
2023/10/09 07:59:11;;;;;;;13.00;6.17;;;;;;;15.37;100.00;103669.81;4956388;28;20438;-74
2023/10/09 08:01:52;;;;;;;13.33;5.77;;;;;;;14.74;100.00;103583.66;4954562;28;20939;-74
2023/10/09 08:05:18;;;;;;;12.50;6.93;;;;;;;15.29;100.00;103664.38;4953042;28;20477;-74
2023/10/09 08:07:25;;;;;;;12.53;5.80;;;;;;;15.18;100.00;103652.97;4938803;28;20916;-75
2023/10/09 08:15:20;;;;;;;11.67;6.00;;;;;;;15.25;100.00;103663.00;4954635;28;20986;-75
2023/10/09 08:18:27;;;;;;;16.37;6.23;;;;;;;15.42;100.00;103690.09;4939913;28;20973;-75
2023/10/09 08:22:07;;;;;;;12.60;5.23;;;;;;;15.28;100.00;103672.66;4956406;28;20457;-74
2023/10/09 08:23:52;;;;;;;13.43;6.07;;;;;;;15.46;100.00;103713.97;4938225;28;20581;-74
2023/10/09 08:26:47;;;;;;;12.33;5.90;;;;;;;15.03;100.00;103648.19;4941001;28;20802;-74
2023/10/09 08:29:19;;;;;;;14.17;6.43;;;;;;;15.12;100.00;103655.31;4959136;28;20446;-75
2023/10/09 08:31:45;;;;;;;15.90;6.83;;;;;;;15.23;100.00;103683.09;4957278;28;20438;-74
2023/10/09 08:34:27;;;;;;;17.63;6.57;;;;;;;15.16;100.00;103663.97;4955376;28;20434;-74
2023/10/09 08:36:52;;;;;;;15.03;6.27;;;;;;;15.24;100.00;103707.25;4956914;28;20218;-75
2023/10/09 08:39:25;;;;;;;12.87;5.77;;;;;;;15.47;100.00;103737.31;4958913;28;20815;-75
2023/10/09 08:41:52;;;;;;;15.93;6.07;;;;;;;15.23;100.00;103708.28;4954835;28;20671;-75
2023/10/09 08:44:22;;;;;;;14.60;6.53;;;;;;;15.46;100.00;103724.81;4942073;28;20561;-75
2023/10/09 08:46:50;;;;;;;14.10;6.07;;;;;;;15.58;100.00;103742.44;4957154;28;20480;-75
2023/10/09 08:49:16;;;;;;;14.90;7.50;;;;;;;15.33;100.00;103700.03;4954347;28;20756;-75
2023/10/09 08:51:42;;;;;;;11.17;5.30;;;;;;;15.27;100.00;103679.06;4939338;28;20454;-75
2023/10/09 08:54:11;;;;;;;14.07;6.30;;;;;;;15.34;100.00;103686.38;4955943;28;20834;-74
2023/10/09 08:56:39;;;;;;;11.10;5.37;;;;;;;15.63;100.00;103743.84;4959876;28;20798;-74
2023/10/09 08:59:05;;;;;;;12.77;5.50;;;;;;;15.67;100.00;103721.69;4963023;28;20449;-74
2023/10/09 09:01:34;;;;;;;12.80;5.90;;;;;;;15.44;100.00;103685.41;4956811;28;20574;-74
2023/10/09 09:04:02;;;;;;;12.77;6.37;;;;;;;15.28;100.00;103645.63;4944445;28;20509;-74
2023/10/09 09:06:37;;;;;;;11.77;5.20;;;;;;;15.74;100.00;103721.94;4951192;28;20429;-74
2023/10/09 09:09:15;;;;;;;15.23;6.00;;;;;;;15.56;100.00;103675.97;4960862;28;20437;-74
2023/10/09 09:11:48;;;;;;;12.63;5.10;;;;;;;15.78;100.00;103705.19;4955015;28;20450;-74
2023/10/09 09:14:18;;;;;;;12.60;5.70;;;;;;;15.56;100.00;103667.84;4961047;28;20441;-74
2023/10/09 09:16:48;;;;;;;11.10;5.20;;;;;;;15.33;100.00;103614.38;4956485;28;20458;-74
2023/10/09 09:19:17;;;;;;;15.43;6.30;;;;;;;15.85;100.00;103699.97;4954595;28;20573;-74
2023/10/09 09:21:54;;;;;;;10.17;5.37;;;;;;;15.88;100.00;103707.78;4953171;28;20489;-75
2023/10/09 09:27:21;;;;;;;17.37;5.23;;;;;;;15.57;100.00;103662.31;4957637;28;20450;-74
2023/10/09 09:29:52;;;;;;;12.80;5.50;;;;;;;15.91;100.00;103680.38;4957236;28;20512;-75
2023/10/09 09:32:35;;;;;;;16.17;6.17;;;;;;;15.94;100.00;103709.81;4956259;28;20955;-74
2023/10/09 09:35:04;;;;;;;11.23;5.50;;;;;;;15.94;100.00;103714.38;4957248;28;20431;-74
2023/10/09 09:37:34;;;;;;;19.47;5.80;;;;;;;15.95;100.00;103707.97;4953964;28;20915;-75
2023/10/09 09:40:14;;;;;;;16.17;5.13;;;;;;;15.97;100.00;103719.47;4954200;28;21013;-75
2023/10/09 09:42:48;;;;;;;12.90;5.20;;;;;;;15.98;100.00;103726.56;4955875;28;20454;-75
2023/10/09 09:45:16;;;;;;;11.07;5.20;;;;;;;15.97;100.00;103714.91;4957056;28;20473;-75
2023/10/09 09:47:51;;;;;;;12.70;5.37;;;;;;;15.85;100.00;103689.13;4956733;28;20524;-75
2023/10/09 09:50:24;;;;;;;12.60;5.90;;;;;;;15.97;100.00;103716.78;4936128;28;20438;-75
2023/10/09 09:52:55;;;;;;;14.77;5.27;;;;;;;15.96;100.00;103715.06;4955979;28;20909;-75
2023/10/09 09:55:30;;;;;;;15.90;5.37;;;;;;;15.74;100.00;103682.19;4956139;28;20445;-75
2023/10/09 09:57:57;;;;;;;16.90;5.50;;;;;;;15.46;100.00;103646.38;4955612;28;20475;-75
2023/10/09 10:00:53;;;;;;;12.23;5.07;;;;;;;15.27;100.00;103633.94;4956412;28;20530;-75
2023/10/09 10:03:33;;;;;;;9.97;4.60;;;;;;;15.79;100.00;103717.72;4955291;28;20467;-75
2023/10/09 10:06:04;;;;;;;13.23;4.40;;;;;;;15.88;100.00;103729.44;4954667;28;21026;-75
2023/10/09 10:08:32;;;;;;;15.30;5.83;;;;;;;15.79;100.00;103716.84;4956184;28;20537;-75
2023/10/09 10:11:04;;;;;;;16.13;5.60;;;;;;;15.85;100.00;103724.31;4957741;28;20438;-75
2023/10/09 10:13:41;;;;;;;15.80;5.47;;;;;;;15.93;100.00;103743.28;4954613;28;20465;-75
2023/10/09 10:16:20;;;;;;;11.97;5.23;;;;;;;15.94;100.00;103746.84;4957814;28;20457;-75
2023/10/09 10:19:07;;;;;;;14.13;4.70;;;;;;;15.92;100.00;103763.28;4957256;28;20815;-75
2023/10/09 10:21:48;;;;;;;10.23;3.70;;;;;;;15.38;100.00;103692.31;4953802;28;20445;-75
2023/10/09 10:24:30;;;;;;;12.03;4.53;;;;;;;15.91;100.00;103772.41;4956497;28;20502;-75
2023/10/09 10:27:18;;;;;;;12.97;4.13;;;;;;;15.91;100.00;103785.06;4952697;28;20786;-75
2023/10/09 10:29:46;;;;;;;10.53;3.97;;;;;;;15.86;100.00;103773.91;4956467;28;20449;-76
2023/10/09 10:32:12;;;;;;;11.30;3.60;;;;;;;15.74;100.00;103784.19;4943842;28;20466;-75
2023/10/09 10:34:46;;;;;;;7.70;3.53;;;;;;;15.94;100.00;103826.22;4955191;28;20586;-75
2023/10/09 10:37:13;;;;;;;10.80;3.93;;;;;;;15.60;100.00;103772.06;4956362;28;20433;-74
2023/10/09 10:39:59;;;;;;;16.33;4.50;;;;;;;15.70;100.00;103780.91;4955519;28;20472;-74
2023/10/09 10:42:57;;;;;;;10.77;4.00;;;;;;;15.27;100.00;103700.69;4954904;28;20458;-73
2023/10/09 10:45:43;;;;;;;8.27;3.47;;;;;;;15.91;100.00;103798.59;4953295;28;20473;-74
2023/10/09 10:48:22;;;;;;;11.67;3.87;;;;;;;16.13;100.00;103818.84;4954738;28;20450;-74
2023/10/09 10:50:57;;;;;;;10.83;3.87;;;;;;;16.14;100.00;103797.03;4953466;28;20968;-74
2023/10/09 10:53:26;;;;;;;10.20;3.77;;;;;;;16.12;100.00;103754.88;4956821;28;20455;-74
2023/10/09 11:04:24;;;;;;;14.70;3.83;;;;;;;16.44;100.00;103748.69;4953625;28;20484;-75
2023/10/09 11:06:51;;;;;;;13.03;4.03;;;;;;;16.15;100.00;103690.41;4955494;28;20442;-75
2023/10/09 11:09:23;;;;;;;11.80;3.37;;;;;;;16.68;100.00;103769.53;4953520;28;20453;-75
2023/10/09 11:11:50;;;;;;;10.33;3.37;;;;;;;16.61;100.00;103742.28;4956033;28;21231;-75
2023/10/09 11:14:23;;;;;;;7.27;2.67;;;;;;;16.38;100.00;103697.88;4955446;28;20431;-76
2023/10/09 11:16:48;;;;;;;7.17;2.80;;;;;;;16.38;100.00;103698.72;4952590;28;20516;-76
2023/10/09 11:19:28;;;;;;;11.80;2.80;;;;;;;16.43;100.00;103672.00;4952540;28;20439;-76
2023/10/09 11:24:34;;;;;;;10.23;2.80;;;;;;;16.83;100.00;103688.41;4957933;28;20536;-76
2023/10/09 11:27:05;;;;;;;7.80;2.67;;;;;;;16.42;100.00;103590.88;4948141;28;20452;-76
2023/10/09 11:32:23;;;;;;;9.93;3.23;;;;;;;16.66;100.00;103600.81;4954688;28;20473;-77
2023/10/09 11:34:53;;;;;;;8.80;2.90;;;;;;;16.58;100.00;103571.91;4955289;28;20442;-76
2023/10/09 11:38:20;;;;;;;9.50;2.83;;;;;;;16.60;100.00;103534.63;4956159;28;20450;-77
2023/10/09 11:41:05;;;;;;;9.37;2.63;;;;;;;16.55;100.00;103504.50;4948157;28;20813;-77
2023/10/09 11:43:51;;;;;;;12.90;3.10;;;;;;;15.73;100.00;103319.75;4954975;28;20466;-78
2023/10/09 11:46:36;;;;;;;10.90;3.00;;;;;;;16.50;100.00;103417.47;4956329;28;20476;-77
2023/10/09 11:54:35;;;;;;;13.00;3.83;;;;;;;15.93;100.00;103249.81;4956231;28;20543;-77
2023/10/09 11:57:01;;;;;;;10.47;2.70;;;;;;;16.45;100.00;103322.34;4941165;28;20445;-77
2023/10/09 11:59:28;;;;;;;13.60;3.70;;;;;;;15.87;100.00;103216.19;4955359;28;20441;-78
2023/10/09 12:02:00;;;;;;;8.27;2.83;;;;;;;16.45;100.00;103315.06;4954203;28;20477;-76
2023/10/09 12:04:30;;;;;;;10.13;3.03;;;;;;;16.14;100.00;103206.75;4956871;28;20560;-77
2023/10/09 12:07:06;;;;;;;13.13;2.93;;;;;;;16.21;100.00;103209.59;4945475;28;20480;-77
2023/10/09 12:09:34;;;;;;;13.30;3.50;;;;;;;16.43;100.00;103238.56;4957449;28;20442;-77
2023/10/09 12:12:02;;;;;;;10.67;2.70;;;;;;;16.09;100.00;103165.00;4950658;28;20458;-76
2023/10/09 12:14:33;;;;;;;10.70;2.90;;;;;;;16.49;100.00;103212.63;4957425;28;20802;-78
2023/10/09 12:17:05;;;;;;;11.83;3.03;;;;;;;15.92;100.00;103110.97;4945949;28;20527;-78
2023/10/09 12:19:32;;;;;;;9.67;3.43;;;;;;;15.68;100.00;103081.31;4944756;28;20958;-77
2023/10/09 12:22:00;;;;;;;8.60;2.70;;;;;;;16.30;100.00;103164.34;4955219;28;20458;-77
2023/10/09 12:24:26;;;;;;;8.93;3.00;;;;;;;16.23;100.00;103129.88;4955482;28;21012;-77
2023/10/09 12:26:53;;;;;;;7.93;2.33;;;;;;;15.57;100.00;103020.34;4954543;28;20446;-77
2023/10/09 12:29:19;;;;;;;13.07;2.73;;;;;;;16.44;100.00;103144.59;4955511;28;20438;-76
2023/10/09 12:31:45;;;;;;;11.83;2.30;;;;;;;16.08;100.00;103093.75;4955314;28;20445;-77
2023/10/09 12:34:15;;;;;;;8.07;2.50;;;;;;;15.35;100.00;102971.44;4955270;28;20797;-79
2023/10/09 12:36:43;;;;;;;9.83;2.83;;;;;;;15.71;100.00;103003.38;4951157;28;20495;-78
2023/10/09 12:39:17;;;;;;;10.00;2.47;;;;;;;16.27;100.00;103114.09;4958647;28;20532;-76
2023/10/09 12:41:43;;;;;;;16.90;3.00;;;;;;;16.27;100.00;103090.56;4952688;28;20487;-76
2023/10/09 12:44:14;;;;;;;9.13;3.13;;;;;;;15.55;100.00;102973.69;4953932;28;20561;-77
2023/10/09 12:46:40;;;;;;;12.07;2.70;;;;;;;16.31;100.00;103087.47;4957164;28;20484;-76
2023/10/09 12:49:06;;;;;;;9.67;2.23;;;;;;;15.78;100.00;103003.50;4954504;28;20533;-77
2023/10/09 12:51:31;;;;;;;13.90;3.20;;;;;;;16.07;100.00;103042.50;4944395;28;20523;-76
2023/10/09 12:53:57;;;;;;;8.07;2.30;;;;;;;16.33;100.00;103089.00;4957378;28;20228;-76
2023/10/09 12:56:32;;;;;;;12.10;2.30;;;;;;;16.34;100.00;103087.94;4961564;28;20248;-76
2023/10/09 12:59:01;;;;;;;10.60;2.90;;;;;;;16.32;100.00;103076.47;4959714;28;20349;-76
2023/10/09 13:01:45;;;;;;;8.47;2.27;;;;;;;15.49;100.00;102960.91;4960294;28;20446;-76
2023/10/09 13:04:15;;;;;;;6.60;2.30;;;;;;;15.81;100.00;103012.06;4956385;28;20998;-76
2023/10/09 13:06:44;;;;;;;11.17;3.03;;;;;;;15.97;100.00;103035.47;4958008;28;20443;-76
2023/10/09 13:09:14;;;;;;;7.53;2.43;;;;;;;16.27;100.00;103082.44;4956741;28;20446;-75
2023/10/09 13:11:43;;;;;;;9.57;2.20;;;;;;;16.19;100.00;103068.97;4956482;28;20438;-75
2023/10/09 13:14:27;;;;;;;6.47;2.03;;;;;;;16.30;100.00;103075.81;4956805;28;20434;-75
2023/10/09 13:16:53;;;;;;;8.17;2.00;;;;;;;16.20;100.00;103072.50;4955889;28;20791;-76
2023/10/09 13:19:19;;;;;;;7.50;2.13;;;;;;;16.27;100.00;103068.91;4953855;28;20661;-76
2023/10/09 13:21:44;;;;;;;8.30;2.30;;;;;;;16.30;100.00;103064.97;4955009;28;20299;-76
2023/10/09 13:24:13;;;;;;;6.30;2.27;;;;;;;16.30;100.00;103064.97;4955603;28;20269;-76
2023/10/09 13:26:40;;;;;;;9.03;2.00;;;;;;;16.11;100.00;103044.66;4957998;28;20191;-76
2023/10/09 13:29:09;;;;;;;7.20;2.17;;;;;;;15.94;100.00;103025.03;4938326;28;21046;-75
2023/10/09 13:31:37;;;;;;;9.40;2.20;;;;;;;16.05;100.00;103045.38;4937475;28;20462;-75
2023/10/09 13:34:06;;;;;;;6.37;1.90;;;;;;;16.03;100.00;103048.28;4954516;28;20434;-76
2023/10/09 13:36:33;;;;;;;9.33;2.13;;;;;;;15.96;100.00;103036.47;4946541;28;20445;-78
2023/10/09 13:41:59;;;;;;;5.43;1.60;;;;;;;16.01;100.00;103058.44;4961016;28;20805;-76
2023/10/09 13:44:31;;;;;;;6.50;2.07;;;;;;;16.12;100.00;103075.31;4958595;28;20829;-76
2023/10/09 13:46:58;;;;;;;7.27;2.07;;;;;;;15.85;100.00;103027.94;4961974;28;20526;-75